Terminal Aerodrome Forecast
Issued by NWS

Home | Current Version | Previous Version | Text Only | Print | Product List | Glossary On
Versions: 1 2 3 4 5 6 7 8 9 10 11 12 13
000
FTUS46 KSGX 042328
TAFONT
TAF
KONT 042328Z 0500/0606 24013KT P6SM FEW090
     FM050500 26005KT P6SM FEW010
     FM051100 VRB04KT 4SM BR BKN007
     FM051600 VRB04KT 6SM HZ SCT010
     FM052000 25009KT P6SM FEW100
     FM052200 25015G22KT P6SM SCT080
     FM060400 25005KT P6SM SKC=

USA.gov is the U.S. government's official web portal to all federal, state and local government web resources and services.